createdAt,value
2023-03-29T00:00:42.825Z,95.99
2023-03-29T00:01:44.006Z,95.78
2023-03-29T00:02:43.970Z,95.68
2023-03-29T00:03:43.429Z,95.16
2023-03-29T00:04:43.659Z,95.93
2023-03-29T00:05:44.965Z,95.78
2023-03-29T00:06:44.009Z,95.72
2023-03-29T00:07:45.911Z,95.16
2023-03-29T00:08:44.915Z,94.95
2023-03-29T00:09:44.436Z,94.85
2023-03-29T00:10:44.964Z,95.06
2023-03-29T00:11:44.721Z,94.74
2023-03-29T00:12:44.877Z,94.74
2023-03-29T00:13:45.095Z,94.49
2023-03-29T00:14:45.956Z,94.23
2023-03-29T00:15:46.409Z,94.54
2023-03-29T00:16:45.707Z,94.64
2023-03-29T00:17:46.797Z,94.43
2023-03-29T00:18:47.413Z,94.60
2023-03-29T00:19:46.290Z,94.18
2023-03-29T00:20:46.493Z,93.35
2023-03-29T00:21:46.665Z,93.77
2023-03-29T00:22:46.864Z,93.35
2023-03-29T00:23:49.437Z,93.25
2023-03-29T00:24:47.173Z,93.66
2023-03-29T00:25:47.324Z,93.87
2023-03-29T00:26:47.476Z,93.46
2023-03-29T00:27:47.684Z,94.02
2023-03-29T00:28:49.914Z,93.98
2023-03-29T00:29:48.917Z,93.87
2023-03-29T00:30:48.190Z,93.98
2023-03-29T00:31:48.940Z,93.98
2023-03-29T00:32:48.559Z,93.66
2023-03-29T00:33:49.464Z,93.87
2023-03-29T00:34:49.459Z,94.29
2023-03-29T00:35:50.013Z,94.81
2023-03-29T00:36:49.162Z,94.60
2023-03-29T00:37:49.357Z,94.08
2023-03-29T00:38:50.925Z,93.98
2023-03-29T00:39:50.422Z,94.18
2023-03-29T00:40:50.460Z,93.66
2023-03-29T00:41:49.971Z,93.66
2023-03-29T00:42:50.159Z,93.98
2023-03-29T00:43:50.322Z,94.29
2023-03-29T00:44:50.488Z,94.60
2023-03-29T00:45:50.624Z,94.81
2023-03-29T00:46:51.533Z,94.49
2023-03-29T00:47:51.019Z,94.81
2023-03-29T00:48:51.157Z,94.54
2023-03-29T00:49:51.921Z,94.60
2023-03-29T00:50:51.546Z,94.18
2023-03-29T00:51:51.719Z,94.18
2023-03-29T00:52:51.933Z,93.46
2023-03-29T00:53:52.129Z,93.71
2023-03-29T00:54:52.497Z,93.66
2023-03-29T00:55:52.475Z,93.15
2023-03-29T00:56:53.509Z,93.04
2023-03-29T00:57:53.456Z,93.04
2023-03-29T00:58:54.941Z,93.25
2023-03-29T00:59:53.242Z,93.19
2023-03-29T01:00:53.423Z,93.25
2023-03-29T01:01:53.637Z,92.94
2023-03-29T01:02:53.903Z,93.04
2023-03-29T01:03:54.076Z,92.94
2023-03-29T01:04:54.145Z,93.04
2023-03-29T01:05:54.372Z,93.04
2023-03-29T01:06:56.480Z,93.25
2023-03-29T01:07:54.718Z,93.04
2023-03-29T01:08:54.896Z,93.00
2023-03-29T01:09:55.101Z,93.10
2023-03-29T01:10:55.324Z,93.25
2023-03-29T01:11:55.554Z,93.15
2023-03-29T01:12:57.441Z,93.25
2023-03-29T01:13:55.957Z,93.25
2023-03-29T01:14:56.222Z,93.46
2023-03-29T01:15:56.995Z,93.46
2023-03-29T01:16:56.972Z,93.31
2023-03-29T01:17:56.736Z,93.00
2023-03-29T01:18:57.464Z,92.94
2023-03-29T01:19:56.916Z,93.04
2023-03-29T01:20:58.968Z,93.04
2023-03-29T01:21:57.932Z,92.59
2023-03-29T01:22:57.492Z,93.04
2023-03-29T01:23:58.947Z,93.15
2023-03-29T01:24:58.936Z,92.74
2023-03-29T01:25:57.960Z,92.63
2023-03-29T01:26:58.119Z,92.74
2023-03-29T01:27:58.304Z,92.94
2023-03-29T01:28:59.938Z,92.49
2023-03-29T01:29:58.755Z,93.15
2023-03-29T01:30:59.042Z,93.10
2023-03-29T01:31:59.133Z,92.69
2023-03-29T01:33:00.012Z,92.38
2023-03-29T01:33:59.970Z,92.69
2023-03-29T01:35:00.441Z,92.94
2023-03-29T01:35:59.861Z,92.84
2023-03-29T01:37:00.064Z,92.43
2023-03-29T01:38:01.934Z,92.94
2023-03-29T01:39:00.423Z,92.84
2023-03-29T01:40:00.610Z,92.84
2023-03-29T01:41:00.975Z,92.63
2023-03-29T01:42:01.006Z,92.32
2023-03-29T01:43:01.937Z,92.49
2023-03-29T01:44:01.480Z,91.80
2023-03-29T01:45:02.588Z,91.97
2023-03-29T01:46:01.928Z,92.28
2023-03-29T01:47:01.999Z,91.76
2023-03-29T01:48:02.302Z,91.45
2023-03-29T01:49:02.938Z,92.28
2023-03-29T01:50:02.496Z,92.69
2023-03-29T01:51:02.964Z,92.59
2023-03-29T01:52:02.905Z,92.43
2023-03-29T01:53:03.123Z,91.97
2023-03-29T01:54:03.283Z,92.80
2023-03-29T01:55:03.452Z,92.59
2023-03-29T01:56:03.617Z,92.43
2023-03-29T01:57:04.066Z,92.38
2023-03-29T01:58:04.470Z,92.43
2023-03-29T01:59:04.168Z,92.53
2023-03-29T02:00:04.225Z,92.38
2023-03-29T02:01:04.667Z,92.53
2023-03-29T02:02:04.648Z,92.43
2023-03-29T02:03:04.935Z,92.63
2023-03-29T02:04:05.058Z,91.76
2023-03-29T02:05:05.234Z,91.76
2023-03-29T02:06:05.939Z,92.63
2023-03-29T02:07:06.303Z,92.28
2023-03-29T02:08:05.713Z,92.28
2023-03-29T02:09:05.908Z,92.07
2023-03-29T02:10:06.985Z,92.07
2023-03-29T02:11:06.508Z,92.07
2023-03-29T02:12:06.454Z,91.55
2023-03-29T02:13:07.480Z,91.97
2023-03-29T02:14:06.785Z,91.45
2023-03-29T02:15:06.907Z,92.69
2023-03-29T02:16:08.109Z,91.35
2023-03-29T02:17:07.316Z,91.35
2023-03-29T02:18:07.515Z,91.86
2023-03-29T02:19:07.655Z,91.97
2023-03-29T02:20:07.802Z,91.45
2023-03-29T02:21:08.482Z,91.35
2023-03-29T02:22:08.945Z,91.20
2023-03-29T02:23:08.366Z,90.16
2023-03-29T02:24:08.519Z,90.16
2023-03-29T02:25:08.663Z,91.20
2023-03-29T02:26:08.877Z,90.58
2023-03-29T02:27:09.488Z,90.16
2023-03-29T02:28:09.882Z,90.89
2023-03-29T02:29:10.434Z,89.65
2023-03-29T02:30:09.686Z,90.78
2023-03-29T02:31:10.799Z,90.26
2023-03-29T02:32:10.013Z,90.47
2023-03-29T02:33:10.254Z,89.86
2023-03-29T02:34:10.519Z,89.96
2023-03-29T02:35:11.483Z,89.75
2023-03-29T02:36:10.774Z,90.12
2023-03-29T02:37:10.969Z,89.75
2023-03-29T02:38:11.153Z,89.81
2023-03-29T02:39:11.341Z,89.81
2023-03-29T02:40:11.985Z,89.71
2023-03-29T02:41:11.737Z,90.12
2023-03-29T02:42:11.890Z,89.61
2023-03-29T02:43:12.107Z,89.19
2023-03-29T02:44:12.322Z,89.81
2023-03-29T02:45:13.486Z,88.98
2023-03-29T02:46:13.535Z,88.57
2023-03-29T02:47:12.828Z,88.78
2023-03-29T02:48:13.493Z,88.98
2023-03-29T02:49:13.169Z,88.98
2023-03-29T02:50:13.987Z,88.78
2023-03-29T02:51:14.002Z,88.57
2023-03-29T02:52:13.664Z,88.67
2023-03-29T02:53:14.491Z,88.43
2023-03-29T02:54:14.020Z,88.94
2023-03-29T02:55:14.816Z,88.01
2023-03-29T02:56:14.370Z,87.49
2023-03-29T02:57:14.591Z,87.49
2023-03-29T02:58:14.781Z,87.81
2023-03-29T02:59:14.976Z,87.18
2023-03-29T03:00:15.951Z,86.98
2023-03-29T03:01:15.384Z,87.39
2023-03-29T03:02:16.062Z,87.60
2023-03-29T03:03:15.850Z,87.39
2023-03-29T03:04:17.452Z,86.57
2023-03-29T03:05:16.995Z,86.83
2023-03-29T03:06:17.009Z,87.56
2023-03-29T03:07:17.949Z,87.46
2023-03-29T03:08:16.740Z,86.83
2023-03-29T03:09:16.905Z,86.94
2023-03-29T03:10:18.953Z,87.18
2023-03-29T03:11:17.341Z,86.32
2023-03-29T03:12:18.454Z,86.52
2023-03-29T03:13:18.497Z,87.15
2023-03-29T03:14:17.913Z,87.25
2023-03-29T03:15:18.112Z,86.83
2023-03-29T03:16:18.329Z,86.63
2023-03-29T03:17:18.428Z,86.94
2023-03-29T03:18:18.637Z,87.25
2023-03-29T03:19:18.805Z,87.08
2023-03-29T03:20:18.973Z,87.76
2023-03-29T03:21:19.215Z,87.46
2023-03-29T03:22:19.385Z,87.56
2023-03-29T03:23:19.546Z,86.94
2023-03-29T03:24:19.722Z,86.94
2023-03-29T03:25:19.913Z,86.63
2023-03-29T03:26:20.120Z,87.25
2023-03-29T03:27:20.304Z,86.32
2023-03-29T03:28:20.482Z,86.21
2023-03-29T03:29:21.446Z,86.11
2023-03-29T03:30:20.919Z,86.01
2023-03-29T03:31:21.070Z,85.80
2023-03-29T03:32:21.279Z,85.91
2023-03-29T03:33:21.439Z,86.52
2023-03-29T03:34:21.613Z,86.52
2023-03-29T03:35:22.031Z,86.38
2023-03-29T03:36:21.953Z,85.35
2023-03-29T03:37:22.117Z,85.28
2023-03-29T03:38:22.989Z,85.55
2023-03-29T03:39:23.868Z,85.66
2023-03-29T03:40:22.774Z,85.70
2023-03-29T03:41:23.504Z,85.35
2023-03-29T03:42:23.156Z,85.45
2023-03-29T03:43:23.304Z,85.66
2023-03-29T03:44:23.448Z,85.45
2023-03-29T03:45:24.011Z,85.35
2023-03-29T03:46:23.772Z,85.14
2023-03-29T03:47:24.978Z,85.45
2023-03-29T03:48:24.111Z,84.83
2023-03-29T03:49:24.988Z,85.14
2023-03-29T03:50:24.957Z,84.94
2023-03-29T03:51:24.601Z,85.55
2023-03-29T03:52:24.769Z,85.24
2023-03-29T03:53:24.919Z,85.55
2023-03-29T03:54:25.076Z,85.24
2023-03-29T03:55:25.504Z,85.45
2023-03-29T03:56:25.406Z,85.97
2023-03-29T03:57:25.608Z,85.45
2023-03-29T03:58:25.765Z,85.66
2023-03-29T03:59:25.941Z,85.45
2023-03-29T04:00:26.098Z,85.55
2023-03-29T04:01:26.262Z,86.07
2023-03-29T04:02:27.055Z,85.66
2023-03-29T04:03:26.766Z,86.49
2023-03-29T04:04:26.977Z,86.28
2023-03-29T04:05:27.011Z,86.49
2023-03-29T04:06:27.167Z,85.55
2023-03-29T04:07:27.356Z,85.35
2023-03-29T04:08:27.522Z,85.86
2023-03-29T04:09:28.515Z,85.66
2023-03-29T04:10:27.798Z,85.66
2023-03-29T04:11:29.454Z,85.76
2023-03-29T04:12:28.205Z,85.55
2023-03-29T04:13:29.005Z,86.28
2023-03-29T04:14:28.551Z,85.14
2023-03-29T04:15:28.799Z,84.83
2023-03-29T04:16:29.558Z,85.10
2023-03-29T04:17:29.971Z,85.10
2023-03-29T04:18:30.039Z,85.10
2023-03-29T04:19:29.952Z,85.31
2023-03-29T04:20:30.455Z,84.83
2023-03-29T04:21:29.817Z,84.79
2023-03-29T04:22:30.954Z,85.10
2023-03-29T04:23:30.198Z,85.10
2023-03-29T04:24:30.363Z,85.04
2023-03-29T04:25:30.555Z,85.21
2023-03-29T04:26:30.732Z,85.52
2023-03-29T04:27:30.876Z,85.41
2023-03-29T04:28:32.001Z,86.13
2023-03-29T04:29:31.148Z,86.24
2023-03-29T04:30:31.337Z,86.13
2023-03-29T04:31:31.569Z,86.44
2023-03-29T04:32:31.663Z,87.52
2023-03-29T04:33:32.968Z,88.04
2023-03-29T04:34:31.950Z,87.93
2023-03-29T04:35:32.125Z,88.45
2023-03-29T04:36:32.316Z,88.45
2023-03-29T04:37:32.650Z,88.45
2023-03-29T04:38:34.474Z,88.80
2023-03-29T04:39:33.474Z,89.32
2023-03-29T04:40:33.003Z,89.83
2023-03-29T04:41:33.163Z,89.32
2023-03-29T04:42:33.541Z,89.52
2023-03-29T04:43:34.510Z,89.42
2023-03-29T04:44:34.105Z,89.52
2023-03-29T04:45:34.510Z,90.04
2023-03-29T04:46:35.136Z,89.69
2023-03-29T04:47:34.472Z,89.73
2023-03-29T04:48:34.558Z,89.94
2023-03-29T04:49:35.476Z,90.77
2023-03-29T04:50:34.877Z,89.73
2023-03-29T04:51:35.521Z,89.83
2023-03-29T04:52:35.197Z,90.87
2023-03-29T04:53:35.390Z,90.97
2023-03-29T04:54:36.482Z,91.17
2023-03-29T04:55:35.810Z,90.97
2023-03-29T04:56:36.976Z,90.97
2023-03-29T04:57:36.239Z,91.17
2023-03-29T04:58:36.975Z,91.28
2023-03-29T04:59:36.645Z,90.66
2023-03-29T05:00:36.825Z,91.28
2023-03-29T05:01:37.044Z,91.59
2023-03-29T05:02:38.064Z,91.28
2023-03-29T05:03:37.988Z,90.66
2023-03-29T05:04:37.537Z,90.97
2023-03-29T05:05:39.493Z,91.80
2023-03-29T05:06:39.369Z,91.49
2023-03-29T05:07:38.003Z,91.03
2023-03-29T05:08:40.018Z,91.07
2023-03-29T05:09:38.280Z,91.80
2023-03-29T05:10:38.468Z,91.55
2023-03-29T05:11:39.497Z,91.07
2023-03-29T05:12:38.745Z,91.07
2023-03-29T05:13:38.904Z,90.87
2023-03-29T05:14:39.083Z,91.17
2023-03-29T05:15:41.284Z,91.17
2023-03-29T05:16:40.626Z,91.07
2023-03-29T05:17:40.517Z,91.07
2023-03-29T05:18:40.482Z,91.07
2023-03-29T05:19:39.980Z,91.28
2023-03-29T05:20:40.984Z,91.07
2023-03-29T05:21:40.326Z,91.28
2023-03-29T05:22:40.602Z,90.45
2023-03-29T05:23:41.027Z,91.13
2023-03-29T05:24:40.899Z,90.41
2023-03-29T05:25:42.986Z,90.62
2023-03-29T05:26:42.981Z,91.13
2023-03-29T05:27:41.306Z,90.52
2023-03-29T05:28:42.448Z,90.93
2023-03-29T05:29:42.524Z,90.89
2023-03-29T05:30:42.512Z,91.24
2023-03-29T05:31:41.956Z,91.03
2023-03-29T05:32:42.029Z,91.03
2023-03-29T05:33:42.202Z,91.09
2023-03-29T05:34:42.366Z,91.13
2023-03-29T05:35:44.528Z,91.03
2023-03-29T05:36:42.857Z,91.24
2023-03-29T05:37:42.914Z,91.03
2023-03-29T05:38:43.099Z,91.24
2023-03-29T05:39:43.299Z,90.62
2023-03-29T05:40:43.504Z,91.24
2023-03-29T05:41:43.688Z,91.24
2023-03-29T05:42:44.516Z,91.20
2023-03-29T05:43:44.523Z,91.30
2023-03-29T05:44:44.166Z,91.40
2023-03-29T05:45:45.006Z,91.40
2023-03-29T05:46:44.622Z,91.82
2023-03-29T05:47:45.575Z,91.61
2023-03-29T05:49:05.960Z,91.75
2023-03-29T05:49:46.218Z,91.71
2023-03-29T05:50:46.364Z,92.17
2023-03-29T05:51:47.520Z,92.13
2023-03-29T05:52:46.519Z,92.64
2023-03-29T05:53:46.849Z,92.79
2023-03-29T05:54:46.124Z,92.68
2023-03-29T05:55:47.022Z,92.74
2023-03-29T05:56:47.361Z,92.64
2023-03-29T05:57:47.534Z,92.89
2023-03-29T05:58:46.683Z,93.62
2023-03-29T05:59:48.357Z,93.82
2023-03-29T06:00:46.948Z,94.23
2023-03-29T06:01:47.088Z,94.03
2023-03-29T06:02:47.320Z,94.96
2023-03-29T06:03:47.564Z,94.75
2023-03-29T06:04:48.543Z,94.85
2023-03-29T06:05:49.662Z,95.43
2023-03-29T06:06:48.886Z,95.17
2023-03-29T06:07:49.110Z,95.43
2023-03-29T06:08:48.250Z,96.41
2023-03-29T06:09:48.439Z,96.20
2023-03-29T06:10:50.013Z,95.95
2023-03-29T06:11:49.489Z,96.67
2023-03-29T06:12:49.027Z,96.51
2023-03-29T06:13:49.233Z,96.67
2023-03-29T06:14:49.401Z,96.98
2023-03-29T06:15:51.421Z,96.72
2023-03-29T06:16:49.844Z,96.77
2023-03-29T06:17:51.029Z,96.56
2023-03-29T06:18:50.882Z,96.56
2023-03-29T06:19:50.434Z,96.56
2023-03-29T06:20:50.627Z,96.47
2023-03-29T06:21:50.844Z,96.67
2023-03-29T06:22:51.036Z,96.77
2023-03-29T06:23:51.226Z,96.36
2023-03-29T06:24:51.399Z,96.36
2023-03-29T06:25:52.356Z,96.52
2023-03-29T06:26:51.739Z,96.67
2023-03-29T06:27:52.503Z,96.42
2023-03-29T06:28:52.486Z,96.47
2023-03-29T06:29:53.246Z,96.67
2023-03-29T06:30:52.412Z,96.42
2023-03-29T06:31:52.473Z,96.62
2023-03-29T06:32:53.628Z,96.98
2023-03-29T06:33:52.762Z,96.88
2023-03-29T06:34:52.956Z,97.60
2023-03-29T06:35:54.028Z,98.11
2023-03-29T06:36:53.245Z,98.49
2023-03-29T06:37:53.992Z,98.07
2023-03-29T06:38:53.516Z,98.33
2023-03-29T06:39:53.717Z,98.02
2023-03-29T06:40:53.891Z,96.99
2023-03-29T06:41:55.033Z,97.30
2023-03-29T06:42:55.040Z,96.99
2023-03-29T06:43:54.991Z,96.69
2023-03-29T06:44:54.638Z,96.79
2023-03-29T06:45:55.509Z,96.48
2023-03-29T06:46:55.017Z,96.37
2023-03-29T06:47:55.271Z,96.48
2023-03-29T06:48:55.462Z,96.37
2023-03-29T06:49:55.622Z,96.64
2023-03-29T06:50:55.753Z,95.76
2023-03-29T06:51:55.954Z,95.86
2023-03-29T06:52:56.166Z,95.71
2023-03-29T06:53:57.041Z,95.71
2023-03-29T06:54:56.545Z,95.24
2023-03-29T06:55:56.724Z,95.30
2023-03-29T06:56:56.930Z,95.30
2023-03-29T06:58:00.274Z,95.24
2023-03-29T06:58:57.234Z,95.45
2023-03-29T06:59:57.394Z,94.82
2023-03-29T07:00:57.592Z,95.65
2023-03-29T07:01:57.869Z,95.24
2023-03-29T07:02:58.033Z,94.93
2023-03-29T07:03:58.157Z,95.14
2023-03-29T07:04:58.379Z,95.45
2023-03-29T07:05:58.565Z,95.03
2023-03-29T07:06:59.044Z,95.14
2023-03-29T07:07:59.050Z,95.55
2023-03-29T07:08:59.106Z,94.72
2023-03-29T07:09:59.287Z,95.03
2023-03-29T07:11:00.204Z,94.72
2023-03-29T07:11:59.652Z,95.65
2023-03-29T07:12:59.892Z,94.57
2023-03-29T07:14:00.106Z,94.78
2023-03-29T07:15:00.305Z,94.62
2023-03-29T07:16:00.511Z,95.09
2023-03-29T07:17:00.668Z,94.74
2023-03-29T07:18:00.929Z,94.32
2023-03-29T07:19:02.504Z,93.91
2023-03-29T07:20:01.141Z,92.88
2023-03-29T07:21:01.520Z,93.56
2023-03-29T07:22:01.447Z,92.84
2023-03-29T07:23:02.552Z,92.43
2023-03-29T07:24:02.551Z,91.81
2023-03-29T07:25:02.065Z,91.56
2023-03-29T07:26:02.238Z,91.66
2023-03-29T07:27:04.901Z,91.83
2023-03-29T07:28:04.372Z,90.66
2023-03-29T07:29:02.759Z,89.28
2023-03-29T07:30:03.094Z,88.92
2023-03-29T07:31:03.284Z,88.04
2023-03-29T07:32:03.997Z,88.86
2023-03-29T07:33:03.563Z,89.73
2023-03-29T07:34:03.750Z,88.96
2023-03-29T07:35:03.843Z,88.51
2023-03-29T07:36:04.050Z,87.73
2023-03-29T07:37:04.192Z,88.20
2023-03-29T07:38:04.351Z,88.06
2023-03-29T07:39:04.464Z,86.72
2023-03-29T07:40:04.664Z,87.07
2023-03-29T07:41:04.935Z,87.90
2023-03-29T07:42:05.499Z,89.07
2023-03-29T07:43:06.042Z,88.86
2023-03-29T07:44:05.269Z,89.62
2023-03-29T07:45:05.412Z,89.11
2023-03-29T07:46:06.589Z,89.31
2023-03-29T07:47:05.777Z,89.73
2023-03-29T07:48:05.983Z,89.67
2023-03-29T07:49:08.004Z,89.31
2023-03-29T07:50:06.287Z,89.52
2023-03-29T07:51:06.452Z,89.11
2023-03-29T07:52:06.627Z,89.11
2023-03-29T07:53:07.506Z,89.11
2023-03-29T07:54:06.993Z,88.90
2023-03-29T07:55:08.120Z,89.22
2023-03-29T07:56:08.062Z,89.17
2023-03-29T07:57:07.570Z,88.90
2023-03-29T07:58:07.783Z,89.28
2023-03-29T07:59:07.951Z,88.70
2023-03-29T08:00:08.088Z,88.29
2023-03-29T08:01:08.359Z,88.59
2023-03-29T08:02:08.420Z,89.07
2023-03-29T08:03:09.600Z,88.66
2023-03-29T08:04:10.585Z,88.96
2023-03-29T08:05:09.673Z,88.35
2023-03-29T08:06:09.090Z,88.24
2023-03-29T08:07:09.268Z,88.56
2023-03-29T08:08:09.435Z,88.35
2023-03-29T08:09:10.375Z,88.86
2023-03-29T08:10:10.519Z,88.24
2023-03-29T08:11:09.893Z,88.20
2023-03-29T08:12:11.777Z,88.10
2023-03-29T08:13:11.008Z,88.00
2023-03-29T08:14:10.394Z,87.90
2023-03-29T08:15:11.381Z,87.69
2023-03-29T08:16:10.757Z,87.69
2023-03-29T08:17:11.002Z,87.63
2023-03-29T08:18:12.108Z,88.35
2023-03-29T08:19:12.012Z,88.20
2023-03-29T08:20:11.432Z,88.00
2023-03-29T08:21:12.512Z,88.41
2023-03-29T08:22:11.801Z,86.77
2023-03-29T08:23:12.021Z,88.10
2023-03-29T08:24:12.185Z,88.10
2023-03-29T08:25:12.378Z,88.00
2023-03-29T08:26:12.576Z,87.28
2023-03-29T08:27:13.516Z,87.38
2023-03-29T08:28:13.560Z,87.18
2023-03-29T08:29:13.081Z,86.66
2023-03-29T08:30:13.282Z,86.56
2023-03-29T08:31:13.514Z,87.24
2023-03-29T08:32:14.568Z,87.04
2023-03-29T08:33:14.609Z,86.42
2023-03-29T08:34:13.959Z,86.72
2023-03-29T08:35:14.116Z,86.72
2023-03-29T08:36:15.047Z,86.89
2023-03-29T08:37:14.473Z,86.58
2023-03-29T08:38:16.526Z,86.58
2023-03-29T08:39:16.240Z,86.24
2023-03-29T08:40:16.024Z,85.72
2023-03-29T08:41:15.316Z,84.80
2023-03-29T08:42:15.470Z,84.69
2023-03-29T08:43:16.629Z,84.59
2023-03-29T08:44:16.563Z,85.38
2023-03-29T08:45:16.570Z,84.96
2023-03-29T08:46:16.215Z,83.53
2023-03-29T08:47:18.029Z,83.12
2023-03-29T08:48:16.397Z,84.34
2023-03-29T08:49:16.555Z,84.66
2023-03-29T08:50:17.518Z,83.80
2023-03-29T08:51:16.921Z,84.14
2023-03-29T08:52:18.027Z,83.32
2023-03-29T08:53:17.286Z,83.83
2023-03-29T08:54:18.064Z,83.59
2023-03-29T08:55:17.581Z,83.51
2023-03-29T08:56:18.531Z,83.00
2023-03-29T08:57:18.030Z,82.59
2023-03-29T08:58:20.038Z,81.87
2023-03-29T08:59:19.557Z,82.59
2023-03-29T09:00:18.549Z,82.59
2023-03-29T09:01:18.780Z,82.55
2023-03-29T09:02:19.555Z,82.65
2023-03-29T09:03:19.167Z,81.32
2023-03-29T09:04:21.025Z,81.52
2023-03-29T09:05:20.030Z,81.87
2023-03-29T09:06:19.594Z,82.08
2023-03-29T09:07:19.745Z,82.59
2023-03-29T09:08:20.568Z,82.45
2023-03-29T09:09:20.082Z,80.88
2023-03-29T09:10:21.029Z,81.49
2023-03-29T09:11:20.459Z,81.45
2023-03-29T09:12:22.034Z,80.88
2023-03-29T09:13:20.813Z,81.29
2023-03-29T09:14:21.530Z,81.18
2023-03-29T09:15:22.040Z,81.01
2023-03-29T09:16:21.335Z,82.55
2023-03-29T09:17:21.515Z,82.28
2023-03-29T09:18:22.575Z,82.90
2023-03-29T09:19:22.567Z,82.90
2023-03-29T09:20:22.582Z,83.27
2023-03-29T09:21:22.075Z,82.65
2023-03-29T09:22:22.578Z,83.78
2023-03-29T09:23:22.465Z,83.03
2023-03-29T09:24:22.626Z,82.00
2023-03-29T09:25:22.783Z,82.21
2023-03-29T09:26:23.534Z,81.76
2023-03-29T09:27:24.558Z,81.96
2023-03-29T09:28:23.303Z,81.56
2023-03-29T09:29:24.035Z,81.65
2023-03-29T09:30:25.038Z,82.17
2023-03-29T09:31:23.991Z,81.93
2023-03-29T09:32:25.057Z,81.82
2023-03-29T09:33:24.187Z,82.75
2023-03-29T09:34:25.070Z,82.17
2023-03-29T09:35:24.577Z,81.79
2023-03-29T09:36:24.765Z,81.65
2023-03-29T09:37:24.923Z,82.35
2023-03-29T09:38:25.083Z,83.27
2023-03-29T09:39:25.229Z,83.31
2023-03-29T09:40:25.391Z,83.72
2023-03-29T09:41:25.599Z,84.53
2023-03-29T09:42:25.773Z,84.12
2023-03-29T09:43:25.906Z,84.84
2023-03-29T09:44:31.319Z,84.64
2023-03-29T09:45:28.410Z,84.39
2023-03-29T09:46:26.396Z,84.84
2023-03-29T09:47:26.619Z,84.53
2023-03-29T09:48:26.792Z,84.53
2023-03-29T09:49:26.951Z,84.80
2023-03-29T09:50:31.531Z,84.53
2023-03-29T09:51:28.282Z,84.60
2023-03-29T09:52:27.425Z,84.70
2023-03-29T09:53:27.567Z,84.70
2023-03-29T09:54:28.583Z,85.31
2023-03-29T09:55:27.834Z,84.15
2023-03-29T09:56:28.058Z,84.77
2023-03-29T09:57:28.297Z,84.66
2023-03-29T09:58:28.444Z,83.54
2023-03-29T09:59:29.603Z,84.46
2023-03-29T10:00:30.117Z,84.39
2023-03-29T10:01:28.936Z,84.66
2023-03-29T10:02:29.131Z,84.46
2023-03-29T10:03:29.305Z,84.25
2023-03-29T10:04:29.507Z,83.91
2023-03-29T10:05:31.079Z,83.64
2023-03-29T10:06:30.550Z,83.81
2023-03-29T10:07:31.044Z,83.19
2023-03-29T10:08:30.292Z,83.39
2023-03-29T10:09:30.436Z,83.70
2023-03-29T10:10:30.658Z,83.19
2023-03-29T10:11:30.748Z,83.50
2023-03-29T10:12:30.930Z,83.74
2023-03-29T10:13:31.589Z,84.09
2023-03-29T10:14:31.234Z,85.42
2023-03-29T10:15:31.448Z,84.91
2023-03-29T10:16:32.588Z,84.97
2023-03-29T10:17:31.807Z,85.38
2023-03-29T10:18:31.984Z,84.36
2023-03-29T10:19:33.055Z,84.66
2023-03-29T10:20:32.348Z,84.36
2023-03-29T10:21:33.563Z,85.38
2023-03-29T10:22:32.736Z,83.54
2023-03-29T10:23:33.109Z,84.63
2023-03-29T10:24:33.172Z,84.42
2023-03-29T10:25:33.393Z,84.42
2023-03-29T10:26:33.586Z,83.91
2023-03-29T10:27:34.111Z,83.50
2023-03-29T10:28:33.910Z,83.84
2023-03-29T10:29:34.095Z,83.74
2023-03-29T10:30:34.291Z,83.70
2023-03-29T10:31:34.512Z,84.46
2023-03-29T10:32:34.759Z,83.95
2023-03-29T10:33:35.566Z,84.42
2023-03-29T10:34:35.100Z,84.07
2023-03-29T10:35:35.277Z,83.52
2023-03-29T10:36:36.055Z,82.77
2023-03-29T10:37:35.671Z,82.22
2023-03-29T10:38:36.554Z,81.91
2023-03-29T10:39:35.961Z,81.10
2023-03-29T10:40:36.103Z,81.24
2023-03-29T10:41:36.255Z,81.03
2023-03-29T10:42:36.392Z,81.60
2023-03-29T10:43:37.101Z,81.60
2023-03-29T10:44:36.797Z,81.60
2023-03-29T10:45:37.613Z,81.51
2023-03-29T10:46:37.292Z,81.81
2023-03-29T10:47:38.107Z,81.10
2023-03-29T10:48:37.527Z,80.83
2023-03-29T10:49:37.698Z,82.15
2023-03-29T10:50:37.846Z,82.26
2023-03-29T10:51:38.020Z,82.81
2023-03-29T10:52:38.194Z,83.01
2023-03-29T10:53:38.378Z,83.38
2023-03-29T10:54:39.102Z,82.46
2023-03-29T10:55:39.551Z,83.14
2023-03-29T10:56:39.069Z,83.10
2023-03-29T10:57:39.229Z,82.69
2023-03-29T10:58:40.555Z,81.26
2023-03-29T10:59:39.439Z,81.73
2023-03-29T11:00:40.611Z,80.91
2023-03-29T11:01:39.830Z,80.57
2023-03-29T11:02:40.628Z,81.04
2023-03-29T11:03:40.255Z,79.72
2023-03-29T11:04:41.062Z,79.68
2023-03-29T11:05:42.562Z,79.07
2023-03-29T11:06:41.556Z,78.97
2023-03-29T11:07:40.860Z,79.93
2023-03-29T11:08:41.561Z,80.02
2023-03-29T11:09:41.210Z,80.02
2023-03-29T11:10:42.068Z,79.72
2023-03-29T11:11:44.084Z,79.58
2023-03-29T11:12:41.858Z,80.09
2023-03-29T11:13:42.020Z,79.79
2023-03-29T11:14:42.197Z,78.87
2023-03-29T11:15:42.437Z,78.87
2023-03-29T11:16:42.645Z,79.93
2023-03-29T11:17:43.594Z,80.13
2023-03-29T11:18:45.064Z,79.82
2023-03-29T11:19:43.036Z,80.27
2023-03-29T11:20:44.098Z,79.66
2023-03-29T11:21:44.064Z,80.41
2023-03-29T11:22:43.601Z,80.41
2023-03-29T11:23:43.811Z,80.91
2023-03-29T11:24:44.020Z,81.43
2023-03-29T11:25:45.062Z,80.96
2023-03-29T11:26:45.065Z,80.75
2023-03-29T11:27:46.062Z,81.98
2023-03-29T11:28:44.831Z,81.77
2023-03-29T11:29:45.015Z,82.39
2023-03-29T11:30:45.191Z,81.84
2023-03-29T11:31:45.458Z,82.04
2023-03-29T11:32:45.580Z,80.57
2023-03-29T11:33:45.640Z,80.68
2023-03-29T11:34:45.828Z,81.59
2023-03-29T11:35:46.022Z,80.94
2023-03-29T11:36:46.207Z,80.29
2023-03-29T11:37:46.356Z,79.93
2023-03-29T11:38:48.578Z,79.21
2023-03-29T11:39:46.728Z,79.93
2023-03-29T11:40:46.899Z,79.48
2023-03-29T11:41:47.083Z,79.27
2023-03-29T11:42:47.252Z,79.95
2023-03-29T11:43:47.487Z,79.64
2023-03-29T11:44:47.674Z,79.14
2023-03-29T11:45:48.129Z,78.22
2023-03-29T11:46:48.066Z,78.02
2023-03-29T11:47:48.377Z,79.10
2023-03-29T11:48:48.424Z,78.05
2023-03-29T11:49:48.629Z,77.84
2023-03-29T11:50:48.851Z,77.81
2023-03-29T11:51:49.026Z,77.50
2023-03-29T11:52:50.584Z,77.20
2023-03-29T11:53:49.315Z,77.50
2023-03-29T11:54:49.480Z,75.81
2023-03-29T11:55:49.663Z,77.23
2023-03-29T11:56:49.847Z,77.74
2023-03-29T11:57:50.041Z,77.53
2023-03-29T11:58:50.181Z,77.40
2023-03-29T11:59:50.371Z,76.99
2023-03-29T12:00:50.540Z,77.53
2023-03-29T12:01:51.187Z,77.26
2023-03-29T12:02:50.989Z,77.81
2023-03-29T12:03:51.235Z,77.47
2023-03-29T12:04:52.072Z,79.02
2023-03-29T12:05:51.370Z,77.60
2023-03-29T12:06:51.570Z,77.26
2023-03-29T12:07:51.840Z,77.09
2023-03-29T12:08:54.583Z,76.34
2023-03-29T12:09:52.062Z,74.24
2023-03-29T12:10:53.577Z,75.63
2023-03-29T12:11:52.534Z,77.15
2023-03-29T12:12:52.642Z,74.71
2023-03-29T12:13:52.815Z,74.75
2023-03-29T12:14:52.978Z,75.49
2023-03-29T12:15:53.130Z,76.41
2023-03-29T12:16:53.362Z,75.73
2023-03-29T12:17:53.599Z,74.92
2023-03-29T12:18:54.623Z,75.94
2023-03-29T12:19:53.910Z,75.80
2023-03-29T12:20:56.075Z,75.84
2023-03-29T12:21:54.369Z,75.94
2023-03-29T12:22:54.648Z,76.28
2023-03-29T12:23:55.455Z,76.96
2023-03-29T12:24:55.662Z,77.78
2023-03-29T12:25:55.082Z,79.10
2023-03-29T12:26:56.127Z,77.74
2023-03-29T12:27:55.638Z,79.27
2023-03-29T12:28:56.136Z,78.01
2023-03-29T12:29:55.707Z,77.50
2023-03-29T12:30:55.962Z,77.84
2023-03-29T12:31:56.177Z,77.53
2023-03-29T12:32:56.438Z,78.96
2023-03-29T12:33:56.453Z,78.15
2023-03-29T12:34:56.671Z,78.05
2023-03-29T12:35:58.611Z,78.86
2023-03-29T12:36:58.603Z,77.53
2023-03-29T12:37:57.260Z,78.15
2023-03-29T12:38:57.464Z,77.78
2023-03-29T12:39:58.137Z,79.10
2023-03-29T12:40:58.594Z,78.86
2023-03-29T12:41:58.014Z,78.35
2023-03-29T12:42:58.218Z,78.66
2023-03-29T12:43:58.399Z,78.28
2023-03-29T12:44:58.710Z,78.25
2023-03-29T12:45:59.675Z,78.96
2023-03-29T12:46:59.642Z,79.02
2023-03-29T12:47:59.305Z,77.94
2023-03-29T12:48:59.399Z,77.74
2023-03-29T12:50:01.688Z,78.76
2023-03-29T12:50:59.738Z,79.06
2023-03-29T12:52:33.306Z,78.66
2023-03-29T12:53:00.086Z,78.45
2023-03-29T12:54:00.282Z,78.86
2023-03-29T12:55:00.451Z,78.59